Time;durP1;ratioP1;P1;durP2;ratioP2;P2;SDS_P1;SDS_P2;PMS_P1;PMS_P2;Temp;Humidity;BMP_temperature;BMP_pressure;BME280_temperature;BME280_humidity;BME280_pressure;Samples;Min_cycle;Max_cycle;Signal;HPM_P1;HPM_P2
2022/03/09 00:01:26;;;;;;;10.85;6.93;;;3.20;86.50;;;;;;5073834;28;20400;-65
2022/03/09 00:03:51;;;;;;;11.85;6.20;;;3.20;86.60;;;;;;5081587;28;20489;-65
2022/03/09 00:06:17;;;;;;;11.55;7.45;;;3.10;86.80;;;;;;5089069;28;20075;-66
2022/03/09 00:08:42;;;;;;;10.80;6.68;;;3.10;87.10;;;;;;5084142;28;20067;-66
2022/03/09 00:11:08;;;;;;;12.20;7.13;;;3.10;87.40;;;;;;5074790;28;20401;-67
2022/03/09 00:13:34;;;;;;;12.05;7.65;;;3.10;87.60;;;;;;5073324;28;20052;-66
2022/03/09 00:15:59;;;;;;;10.55;6.65;;;3.00;87.90;;;;;;5073142;28;20515;-66
2022/03/09 00:18:25;;;;;;;11.20;7.10;;;3.00;88.20;;;;;;5076125;28;20448;-65
2022/03/09 00:20:50;;;;;;;12.50;7.28;;;2.90;88.60;;;;;;5075534;28;20040;-65
2022/03/09 00:23:16;;;;;;;10.02;6.78;;;2.80;89.00;;;;;;5075631;28;20036;-66
2022/03/09 00:25:42;;;;;;;10.77;6.85;;;2.80;89.60;;;;;;5081929;28;20036;-65
2022/03/09 00:28:07;;;;;;;12.00;7.10;;;2.80;90.00;;;;;;5075372;28;20517;-65
2022/03/09 00:30:33;;;;;;;11.05;7.05;;;2.70;90.10;;;;;;5075373;28;20045;-67
2022/03/09 00:32:58;;;;;;;11.13;7.30;;;2.70;90.50;;;;;;5090304;28;20478;-66
2022/03/09 00:35:24;;;;;;;10.18;6.85;;;2.70;90.30;;;;;;5073004;28;20048;-65
2022/03/09 00:37:49;;;;;;;11.80;6.97;;;2.70;90.30;;;;;;5072534;28;20097;-65
2022/03/09 00:40:15;;;;;;;12.60;6.72;;;2.70;90.30;;;;;;5072475;28;20114;-65
2022/03/09 00:42:41;;;;;;;11.90;7.20;;;2.80;90.30;;;;;;5072988;28;20047;-66
2022/03/09 00:45:07;;;;;;;11.45;6.90;;;2.80;90.20;;;;;;5078220;28;20524;-65
2022/03/09 00:47:33;;;;;;;14.52;6.88;;;2.70;90.20;;;;;;5075840;28;20446;-68
2022/03/09 00:49:58;;;;;;;10.18;6.68;;;2.80;90.20;;;;;;5072355;28;20084;-65
2022/03/09 00:52:25;;;;;;;11.50;6.75;;;2.80;90.30;;;;;;5073564;28;20093;-65
2022/03/09 00:54:50;;;;;;;11.05;6.53;;;2.80;90.30;;;;;;5073036;28;20044;-65
2022/03/09 00:57:16;;;;;;;10.50;6.97;;;2.80;90.30;;;;;;5073132;28;20054;-65
2022/03/09 00:59:42;;;;;;;11.55;6.93;;;2.70;90.30;;;;;;5075182;28;20346;-65
2022/03/09 01:02:07;;;;;;;10.88;6.68;;;2.70;90.40;;;;;;5072920;28;20075;-66
2022/03/09 01:04:36;;;;;;;12.95;7.55;;;2.70;90.40;;;;;;5074626;28;20047;-66
2022/03/09 01:07:03;;;;;;;11.23;6.63;;;2.70;90.50;;;;;;5075051;28;20166;-65
2022/03/09 01:09:29;;;;;;;10.75;6.95;;;2.60;90.60;;;;;;5079627;28;20064;-66
2022/03/09 01:11:55;;;;;;;11.90;6.93;;;2.60;90.60;;;;;;5086271;28;20040;-65
2022/03/09 01:14:20;;;;;;;12.57;7.47;;;2.60;90.60;;;;;;5084435;28;20055;-66
2022/03/09 01:16:46;;;;;;;10.43;6.53;;;2.60;90.60;;;;;;5083460;28;20490;-66
2022/03/09 01:19:11;;;;;;;11.68;7.20;;;2.60;90.60;;;;;;5073937;28;20359;-66
2022/03/09 01:21:37;;;;;;;11.32;7.07;;;2.60;90.50;;;;;;5070014;28;20583;-65
2022/03/09 01:24:03;;;;;;;13.25;7.60;;;2.60;90.40;;;;;;5076234;28;20041;-65
2022/03/09 01:26:28;;;;;;;12.25;7.13;;;2.60;90.40;;;;;;5075224;28;20386;-68
2022/03/09 01:28:54;;;;;;;11.70;7.50;;;2.60;90.40;;;;;;5088831;28;20341;-65
2022/03/09 01:31:20;;;;;;;11.43;7.40;;;2.60;90.30;;;;;;5092277;28;20040;-66
2022/03/09 01:33:46;;;;;;;11.40;7.40;;;2.70;90.30;;;;;;5083244;28;20054;-65
2022/03/09 01:36:11;;;;;;;11.48;7.30;;;2.60;90.30;;;;;;5081201;28;20032;-65
2022/03/09 01:38:37;;;;;;;14.15;7.88;;;2.60;90.30;;;;;;5086018;28;20470;-65
2022/03/09 01:41:03;;;;;;;12.90;7.47;;;2.60;90.50;;;;;;5091820;28;20093;-66
2022/03/09 01:43:28;;;;;;;13.13;7.82;;;2.50;90.40;;;;;;5060464;28;20051;-68
2022/03/09 01:45:54;;;;;;;13.93;7.68;;;2.50;90.50;;;;;;5084932;28;20036;-67
2022/03/09 01:48:20;;;;;;;11.48;7.25;;;2.50;90.50;;;;;;5086658;28;20048;-65
2022/03/09 01:50:46;;;;;;;11.27;7.45;;;2.50;90.60;;;;;;5088290;28;20112;-66
2022/03/09 01:53:12;;;;;;;14.00;7.50;;;2.50;90.60;;;;;;5087034;28;20048;-65
2022/03/09 01:55:39;;;;;;;11.95;7.38;;;2.40;90.70;;;;;;5082432;28;20574;-66
2022/03/09 01:58:04;;;;;;;13.60;7.55;;;2.40;90.70;;;;;;5081437;28;20089;-66
2022/03/09 02:00:30;;;;;;;11.13;7.10;;;2.40;90.70;;;;;;5082764;28;20052;-67
2022/03/09 02:02:55;;;;;;;11.02;7.38;;;2.40;90.70;;;;;;5081900;28;20048;-68
2022/03/09 02:05:22;;;;;;;11.15;7.25;;;2.40;90.80;;;;;;5079770;28;20955;-65
2022/03/09 02:10:31;;;;;;;12.68;7.13;;;2.30;90.80;;;;;;5089032;28;20152;-66
2022/03/09 02:12:57;;;;;;;11.73;7.32;;;2.30;90.80;;;;;;5098250;28;20105;-65
2022/03/09 02:15:23;;;;;;;11.85;7.53;;;2.30;90.80;;;;;;5093578;28;20055;-66
2022/03/09 02:17:49;;;;;;;13.38;8.18;;;2.20;90.80;;;;;;5090030;28;20055;-66
2022/03/09 02:20:14;;;;;;;13.50;7.55;;;2.30;90.70;;;;;;5080030;28;20036;-65
2022/03/09 02:22:43;;;;;;;14.38;8.00;;;2.30;90.80;;;;;;5076735;28;20492;-65
2022/03/09 02:25:16;;;;;;;15.90;7.78;;;2.30;90.80;;;;;;5075356;28;20051;-67
2022/03/09 02:27:43;;;;;;;13.32;7.55;;;2.30;90.80;;;;;;5085130;28;20052;-66
2022/03/09 02:30:11;;;;;;;12.25;7.70;;;2.20;90.80;;;;;;5086122;28;20044;-65
2022/03/09 02:32:45;;;;;;;11.02;7.38;;;2.20;90.90;;;;;;5086827;28;20048;-65
2022/03/09 02:35:12;;;;;;;14.07;8.50;;;2.20;91.00;;;;;;5083286;28;20107;-65
2022/03/09 02:37:38;;;;;;;13.93;7.97;;;2.10;91.00;;;;;;5089485;28;20137;-65
2022/03/09 02:40:08;;;;;;;14.50;8.05;;;2.10;91.10;;;;;;5080948;28;20054;-68
2022/03/09 02:42:33;;;;;;;13.38;7.97;;;2.10;91.20;;;;;;5090099;28;20060;-66
2022/03/09 02:44:59;;;;;;;16.13;8.43;;;2.00;91.30;;;;;;5074057;28;20047;-66
2022/03/09 02:47:25;;;;;;;13.82;8.43;;;2.00;91.50;;;;;;5081038;28;20056;-65
2022/03/09 02:49:51;;;;;;;12.82;7.57;;;1.90;91.70;;;;;;5090446;28;20354;-65
2022/03/09 02:52:17;;;;;;;13.50;7.95;;;1.90;91.90;;;;;;5090926;28;20139;-65
2022/03/09 02:54:42;;;;;;;11.40;7.95;;;1.80;91.90;;;;;;5080148;28;20667;-65
2022/03/09 02:57:08;;;;;;;14.52;8.27;;;1.80;92.00;;;;;;5077718;28;20043;-67
2022/03/09 02:59:35;;;;;;;14.65;8.25;;;1.80;92.20;;;;;;5077686;28;20059;-66
2022/03/09 03:02:01;;;;;;;13.68;8.48;;;1.70;92.30;;;;;;5078381;28;20044;-65
2022/03/09 03:04:27;;;;;;;15.52;8.35;;;1.70;92.60;;;;;;5071801;28;20048;-64
2022/03/09 03:06:52;;;;;;;13.40;7.97;;;1.60;92.80;;;;;;5073774;28;20055;-65
2022/03/09 03:09:18;;;;;;;13.10;7.60;;;1.60;93.00;;;;;;5076789;28;20165;-66
2022/03/09 03:11:43;;;;;;;14.07;8.02;;;1.60;93.00;;;;;;5077253;28;20074;-67
2022/03/09 03:14:09;;;;;;;12.40;7.85;;;1.60;93.00;;;;;;5075056;28;20120;-65
2022/03/09 03:16:34;;;;;;;13.10;7.90;;;1.60;93.00;;;;;;5073848;28;20060;-65
2022/03/09 03:19:00;;;;;;;12.77;7.70;;;1.70;92.90;;;;;;5075122;28;20045;-66
2022/03/09 03:21:25;;;;;;;12.73;7.63;;;1.70;92.80;;;;;;5075627;28;20067;-67
2022/03/09 03:23:51;;;;;;;12.88;7.18;;;1.70;92.80;;;;;;5075636;28;20040;-68
2022/03/09 03:26:16;;;;;;;13.77;8.05;;;1.70;92.70;;;;;;5075950;28;20045;-66
2022/03/09 03:28:42;;;;;;;14.25;8.13;;;1.70;92.60;;;;;;5076049;28;20064;-65
2022/03/09 03:31:08;;;;;;;15.65;7.80;;;1.70;92.60;;;;;;5077486;28;20048;-66
2022/03/09 03:33:33;;;;;;;13.13;7.60;;;1.70;92.60;;;;;;5084942;28;20684;-66
2022/03/09 03:35:59;;;;;;;12.70;7.82;;;1.70;92.60;;;;;;5079624;28;20056;-67
2022/03/09 03:38:24;;;;;;;13.13;8.02;;;1.70;92.60;;;;;;5077505;28;20108;-67
2022/03/09 03:40:50;;;;;;;13.90;7.70;;;1.70;92.60;;;;;;5087098;28;20112;-67
2022/03/09 03:43:15;;;;;;;13.02;7.93;;;1.70;92.60;;;;;;5081699;28;20071;-66
2022/03/09 03:45:41;;;;;;;12.65;7.47;;;1.70;92.60;;;;;;5085811;28;20144;-67
2022/03/09 03:48:07;;;;;;;13.45;8.63;;;1.70;92.70;;;;;;5085241;28;20036;-66
2022/03/09 03:50:33;;;;;;;15.45;8.80;;;1.70;92.70;;;;;;5074061;28;20395;-65
2022/03/09 03:52:59;;;;;;;12.75;7.80;;;1.70;92.70;;;;;;5085192;28;20040;-64
2022/03/09 03:55:24;;;;;;;13.50;7.95;;;1.60;92.70;;;;;;5082968;28;20094;-64
2022/03/09 03:57:50;;;;;;;13.77;8.45;;;1.60;92.80;;;;;;5082059;28;20041;-64
2022/03/09 04:00:16;;;;;;;16.35;7.93;;;1.60;92.80;;;;;;5093055;28;20036;-64
2022/03/09 04:02:41;;;;;;;12.55;8.02;;;1.60;92.80;;;;;;5096460;28;20038;-64
2022/03/09 04:05:07;;;;;;;12.25;7.63;;;1.60;92.80;;;;;;5085694;28;20125;-64
2022/03/09 04:07:33;;;;;;;14.32;8.32;;;1.60;92.80;;;;;;5074518;28;20040;-65
2022/03/09 04:09:59;;;;;;;12.90;8.18;;;1.60;92.80;;;;;;5074899;28;20043;-63
2022/03/09 04:12:25;;;;;;;13.00;8.05;;;1.60;92.80;;;;;;5073162;28;20045;-63
2022/03/09 04:14:51;;;;;;;14.93;7.65;;;1.60;92.80;;;;;;5074998;28;20336;-64
2022/03/09 04:17:17;;;;;;;14.52;7.90;;;1.60;92.90;;;;;;5075188;28;20044;-64
2022/03/09 04:19:43;;;;;;;16.13;8.10;;;1.60;92.90;;;;;;5080243;28;20749;-65
2022/03/09 04:22:08;;;;;;;12.85;7.63;;;1.60;93.00;;;;;;5089337;28;20504;-64
2022/03/09 04:24:34;;;;;;;13.70;8.07;;;1.60;93.00;;;;;;5080989;28;20040;-64
2022/03/09 04:26:59;;;;;;;12.15;7.45;;;1.60;93.30;;;;;;5074357;28;20411;-64
2022/03/09 04:29:25;;;;;;;12.20;7.07;;;1.60;93.00;;;;;;5074918;28;20117;-64
2022/03/09 04:31:51;;;;;;;13.85;7.70;;;1.60;93.00;;;;;;5072444;28;20032;-64
2022/03/09 04:34:16;;;;;;;13.98;7.53;;;1.60;93.00;;;;;;5074004;28;20044;-65
2022/03/09 04:36:42;;;;;;;13.77;7.85;;;1.60;93.10;;;;;;5072551;28;20039;-64
2022/03/09 04:39:07;;;;;;;14.88;7.63;;;1.60;93.10;;;;;;5072765;28;20062;-64
2022/03/09 04:41:33;;;;;;;12.73;7.47;;;1.60;93.10;;;;;;5070496;28;20135;-64
2022/03/09 04:43:58;;;;;;;13.48;7.18;;;1.60;93.20;;;;;;5070832;28;20324;-65
2022/03/09 04:46:24;;;;;;;12.60;8.15;;;1.60;93.20;;;;;;5072245;28;20068;-65
2022/03/09 04:48:50;;;;;;;11.15;7.20;;;1.50;93.30;;;;;;5071997;28;20040;-65
2022/03/09 04:51:16;;;;;;;11.55;7.25;;;1.50;93.30;;;;;;5073075;28;20043;-64
2022/03/09 04:53:42;;;;;;;15.50;7.93;;;1.50;93.30;;;;;;5075516;28;20155;-65
2022/03/09 04:56:07;;;;;;;12.75;7.60;;;1.50;93.40;;;;;;5074381;28;20536;-64
2022/03/09 04:58:33;;;;;;;12.60;7.72;;;1.40;93.40;;;;;;5071993;28;20393;-65
2022/03/09 05:00:59;;;;;;;12.75;7.47;;;1.40;93.50;;;;;;5073753;28;20040;-67
2022/03/09 05:03:24;;;;;;;13.05;7.85;;;1.40;93.60;;;;;;5076317;28;20044;-64
2022/03/09 05:05:50;;;;;;;12.48;7.80;;;1.40;93.60;;;;;;5079048;28;20047;-64
2022/03/09 05:08:15;;;;;;;12.18;7.18;;;1.40;93.60;;;;;;5086430;28;20139;-64
2022/03/09 05:10:41;;;;;;;12.07;7.50;;;1.30;93.60;;;;;;5092386;28;20101;-65
2022/03/09 05:13:06;;;;;;;13.85;7.30;;;1.30;93.60;;;;;;5089156;28;20151;-64
2022/03/09 05:15:32;;;;;;;11.52;7.40;;;1.40;93.60;;;;;;5081025;28;20040;-64
2022/03/09 05:17:58;;;;;;;13.70;7.30;;;1.40;93.60;;;;;;5085481;28;20497;-67
2022/03/09 05:20:24;;;;;;;12.32;6.95;;;1.30;93.60;;;;;;5078807;28;20067;-65
2022/03/09 05:22:51;;;;;;;12.63;6.97;;;1.30;93.60;;;;;;5081350;28;20043;-64
2022/03/09 05:25:17;;;;;;;14.50;7.43;;;1.30;93.60;;;;;;5075865;28;20045;-65
2022/03/09 05:27:43;;;;;;;11.48;7.30;;;1.30;93.60;;;;;;5078580;28;20036;-64
2022/03/09 05:30:09;;;;;;;11.88;7.10;;;1.30;93.60;;;;;;5086596;28;20127;-65
2022/03/09 05:32:36;;;;;;;11.98;7.28;;;1.30;93.70;;;;;;5077546;28;20045;-64
2022/03/09 05:35:03;;;;;;;12.75;7.05;;;1.30;93.70;;;;;;5073218;28;20449;-66
2022/03/09 05:37:34;;;;;;;14.75;7.70;;;1.30;93.80;;;;;;5090797;28;20098;-67
2022/03/09 05:39:59;;;;;;;12.90;7.50;;;1.20;93.80;;;;;;5090472;28;20051;-65
2022/03/09 05:42:25;;;;;;;13.02;7.53;;;1.30;93.80;;;;;;5072332;28;20040;-63
2022/03/09 05:44:50;;;;;;;12.45;7.22;;;1.20;93.90;;;;;;5082236;28;20032;-64
2022/03/09 05:47:16;;;;;;;14.05;7.75;;;1.20;93.90;;;;;;5083344;28;20109;-64
2022/03/09 05:49:41;;;;;;;14.25;7.63;;;1.20;94.00;;;;;;5086895;28;20040;-65
2022/03/09 05:52:07;;;;;;;11.35;7.22;;;1.20;94.00;;;;;;5088296;28;20056;-66
2022/03/09 05:54:32;;;;;;;13.68;8.02;;;1.20;94.00;;;;;;5080665;28;20128;-66
2022/03/09 05:56:58;;;;;;;15.57;8.05;;;1.20;94.10;;;;;;5088631;28;20119;-66
2022/03/09 05:59:23;;;;;;;12.35;7.30;;;1.20;94.40;;;;;;5085080;28;20066;-66
2022/03/09 06:01:49;;;;;;;13.30;7.90;;;1.20;94.20;;;;;;5081774;28;20220;-66
2022/03/09 06:04:15;;;;;;;12.77;7.25;;;1.20;94.30;;;;;;5079612;28;20143;-67
2022/03/09 06:06:40;;;;;;;12.07;7.70;;;1.10;94.30;;;;;;5076613;28;20051;-65
2022/03/09 06:09:06;;;;;;;14.68;8.30;;;1.10;94.40;;;;;;5089702;28;20051;-64
2022/03/09 06:11:31;;;;;;;12.57;7.63;;;1.10;94.50;;;;;;5091140;28;20047;-65
2022/03/09 06:13:57;;;;;;;13.70;7.53;;;1.10;94.50;;;;;;5087743;28;20101;-65
2022/03/09 06:16:22;;;;;;;12.10;7.70;;;1.10;94.50;;;;;;5087385;28;20040;-65
2022/03/09 06:18:49;;;;;;;12.98;8.05;;;1.10;94.60;;;;;;5087100;28;20094;-65
2022/03/09 06:21:14;;;;;;;12.93;7.32;;;1.10;94.50;;;;;;5085558;28;20119;-66
2022/03/09 06:23:41;;;;;;;14.15;7.68;;;1.10;94.60;;;;;;5082747;28;20431;-65
2022/03/09 06:26:07;;;;;;;12.70;7.60;;;1.10;94.60;;;;;;5089200;28;20028;-65
2022/03/09 06:28:33;;;;;;;14.07;8.45;;;1.10;94.60;;;;;;5087342;28;20100;-64
2022/03/09 06:30:59;;;;;;;12.43;7.22;;;1.10;94.60;;;;;;5088495;28;20576;-67
2022/03/09 06:33:25;;;;;;;10.93;6.72;;;1.10;94.70;;;;;;5088734;28;20032;-66
2022/03/09 06:35:50;;;;;;;11.77;7.22;;;1.20;94.70;;;;;;5087451;28;20055;-65
2022/03/09 06:38:16;;;;;;;13.50;7.45;;;1.20;94.70;;;;;;5086787;28;20339;-66
2022/03/09 06:40:42;;;;;;;11.93;7.05;;;1.20;94.60;;;;;;5095740;28;20062;-64
2022/03/09 06:43:08;;;;;;;11.95;7.68;;;1.20;94.70;;;;;;5084257;28;20051;-65
2022/03/09 06:45:35;;;;;;;12.35;7.72;;;1.20;94.70;;;;;;5091553;28;20040;-65
2022/03/09 06:48:04;;;;;;;13.18;7.22;;;1.20;94.70;;;;;;5089398;28;20051;-67
2022/03/09 06:50:30;;;;;;;14.95;7.72;;;1.30;94.80;;;;;;5082479;28;20051;-64
2022/03/09 06:52:56;;;;;;;13.43;7.40;;;1.30;94.80;;;;;;5094333;28;20112;-64
2022/03/09 06:55:22;;;;;;;11.82;6.72;;;1.30;94.80;;;;;;5089090;28;20043;-64
2022/03/09 06:57:47;;;;;;;11.50;7.60;;;1.30;94.80;;;;;;5089292;28;20131;-64
2022/03/09 07:00:14;;;;;;;12.45;7.75;;;1.30;94.90;;;;;;5090566;28;20136;-65
2022/03/09 07:02:40;;;;;;;13.18;7.53;;;1.30;94.90;;;;;;5088849;28;20063;-64
2022/03/09 07:05:07;;;;;;;14.52;7.63;;;1.40;95.00;;;;;;5089605;28;20078;-64
2022/03/09 07:07:32;;;;;;;11.57;7.20;;;1.40;95.00;;;;;;5087279;28;20048;-64
2022/03/09 07:09:58;;;;;;;12.02;7.00;;;1.40;95.00;;;;;;5089039;28;20123;-64
2022/03/09 07:12:24;;;;;;;13.02;8.23;;;1.50;95.20;;;;;;5089304;28;20036;-65
2022/03/09 07:14:50;;;;;;;14.52;7.22;;;1.50;95.10;;;;;;5073678;28;20076;-64
2022/03/09 07:17:16;;;;;;;13.23;7.63;;;1.50;95.10;;;;;;5087987;28;20083;-65
2022/03/09 07:19:41;;;;;;;12.18;7.47;;;1.60;95.10;;;;;;5088627;28;20108;-64
2022/03/09 07:22:07;;;;;;;13.70;8.18;;;1.60;95.20;;;;;;5087647;28;20110;-64
2022/03/09 07:24:33;;;;;;;12.90;7.20;;;1.60;95.10;;;;;;5088531;28;20040;-65
2022/03/09 07:26:59;;;;;;;13.68;8.02;;;1.70;95.10;;;;;;5088440;28;20035;-63
2022/03/09 07:29:25;;;;;;;13.52;7.30;;;1.70;94.90;;;;;;5098020;28;20056;-64
2022/03/09 07:31:52;;;;;;;11.57;7.32;;;1.80;94.90;;;;;;5088467;28;20516;-64
2022/03/09 07:34:22;;;;;;;12.40;7.47;;;1.80;95.10;;;;;;5089412;28;20191;-64
2022/03/09 07:36:49;;;;;;;11.98;7.03;;;1.80;94.90;;;;;;5087053;28;20039;-64
2022/03/09 07:39:15;;;;;;;12.43;7.20;;;1.90;95.00;;;;;;5089575;28;20051;-63
2022/03/09 07:41:41;;;;;;;14.02;7.75;;;1.90;94.80;;;;;;5085304;28;20040;-64
2022/03/09 07:44:07;;;;;;;13.48;7.45;;;2.00;94.70;;;;;;5088965;28;20056;-64
2022/03/09 07:46:32;;;;;;;11.93;7.18;;;2.10;94.70;;;;;;5086511;28;20047;-64
2022/03/09 07:48:58;;;;;;;12.60;7.45;;;2.10;94.60;;;;;;5088467;28;20435;-64
2022/03/09 07:51:23;;;;;;;12.00;7.03;;;2.20;94.60;;;;;;5068968;28;20066;-66
2022/03/09 07:53:49;;;;;;;11.60;7.22;;;2.20;94.80;;;;;;5086983;28;20127;-65
2022/03/09 07:56:14;;;;;;;11.15;7.05;;;2.30;94.70;;;;;;5087629;28;20097;-64
2022/03/09 07:58:40;;;;;;;13.00;7.53;;;2.40;94.90;;;;;;5087302;28;20135;-65
2022/03/09 08:01:06;;;;;;;13.52;7.40;;;2.40;94.70;;;;;;5088131;28;20071;-65
2022/03/09 08:03:32;;;;;;;13.95;7.20;;;2.50;94.60;;;;;;5088142;28;20079;-65
2022/03/09 08:05:58;;;;;;;13.63;7.25;;;2.50;94.50;;;;;;5087439;28;20553;-65
2022/03/09 08:08:24;;;;;;;12.48;7.68;;;2.60;94.30;;;;;;5088278;28;20119;-65
2022/03/09 08:10:50;;;;;;;16.55;8.05;;;2.60;94.20;;;;;;5086038;28;20056;-64
2022/03/09 08:13:15;;;;;;;12.52;7.75;;;2.70;94.20;;;;;;5088753;28;20104;-65
2022/03/09 08:15:41;;;;;;;12.30;7.57;;;2.80;93.90;;;;;;5088609;28;20533;-64
2022/03/09 08:18:07;;;;;;;11.93;7.07;;;2.80;93.90;;;;;;5088163;28;20453;-66
2022/03/09 08:20:33;;;;;;;10.63;7.00;;;2.90;93.60;;;;;;5087699;28;20123;-65
2022/03/09 08:22:58;;;;;;;11.57;7.03;;;2.90;93.60;;;;;;5088600;28;20143;-66
2022/03/09 08:25:24;;;;;;;12.05;6.88;;;3.10;93.60;;;;;;5087305;28;20393;-65
2022/03/09 08:27:49;;;;;;;12.70;7.00;;;3.10;93.60;;;;;;5087859;28;20462;-65
2022/03/09 08:30:15;;;;;;;11.00;6.75;;;3.20;93.10;;;;;;5088588;28;20036;-65
2022/03/09 08:32:40;;;;;;;11.10;7.00;;;3.30;93.00;;;;;;5087289;28;20430;-65
2022/03/09 08:35:06;;;;;;;14.23;7.50;;;3.30;92.70;;;;;;5087112;28;20044;-67
2022/03/09 08:37:32;;;;;;;12.05;7.35;;;3.40;92.70;;;;;;5086845;28;20063;-66
2022/03/09 08:39:57;;;;;;;11.80;7.00;;;3.50;92.50;;;;;;5087138;28;20577;-65
2022/03/09 08:42:23;;;;;;;10.23;6.65;;;3.60;92.40;;;;;;5074603;28;20154;-65
2022/03/09 08:44:50;;;;;;;10.15;6.88;;;3.60;91.80;;;;;;5068047;28;20044;-66
2022/03/09 08:47:16;;;;;;;10.57;6.88;;;3.80;91.80;;;;;;5087422;28;20070;-67
2022/03/09 08:49:41;;;;;;;11.25;7.05;;;3.80;91.20;;;;;;5087498;28;20461;-66
2022/03/09 08:52:10;;;;;;;13.30;6.97;;;3.90;90.90;;;;;;5087157;28;20074;-65
2022/03/09 08:54:36;;;;;;;11.07;7.00;;;4.00;91.10;;;;;;5085687;28;20169;-67
2022/03/09 08:57:03;;;;;;;12.10;6.57;;;4.10;91.10;;;;;;5086407;28;20070;-65
2022/03/09 08:59:28;;;;;;;10.10;6.60;;;4.20;90.70;;;;;;5088687;28;20040;-69
2022/03/09 09:01:54;;;;;;;10.68;6.47;;;4.30;90.40;;;;;;5087074;28;20047;-66
2022/03/09 09:04:19;;;;;;;13.00;6.90;;;4.40;90.00;;;;;;5087723;28;20119;-65
2022/03/09 09:06:45;;;;;;;11.15;6.95;;;4.50;88.30;;;;;;5086260;28;20044;-65
2022/03/09 09:09:11;;;;;;;12.77;7.15;;;4.60;88.70;;;;;;5087366;28;20048;-67
2022/03/09 09:11:38;;;;;;;12.20;6.85;;;4.70;88.30;;;;;;5086784;28;20079;-65
2022/03/09 09:14:03;;;;;;;11.70;6.93;;;4.80;85.70;;;;;;5087339;28;20044;-66
2022/03/09 09:16:29;;;;;;;13.75;6.75;;;4.90;85.90;;;;;;5087781;28;20048;-66
2022/03/09 09:18:54;;;;;;;9.57;6.32;;;5.00;84.20;;;;;;5088899;28;20100;-65
2022/03/09 09:21:20;;;;;;;10.77;6.72;;;5.10;83.90;;;;;;5086329;28;20044;-66
2022/03/09 09:23:46;;;;;;;10.32;6.50;;;5.20;83.40;;;;;;5083330;28;20064;-65
2022/03/09 09:26:15;;;;;;;13.70;6.40;;;5.30;82.70;;;;;;5086579;28;20130;-65
2022/03/09 09:28:41;;;;;;;10.70;7.00;;;5.40;82.20;;;;;;5086714;28;20113;-65
2022/03/09 09:31:07;;;;;;;10.75;6.57;;;5.50;81.20;;;;;;5087910;28;20044;-65
2022/03/09 09:33:32;;;;;;;11.77;6.93;;;5.50;81.50;;;;;;5086648;28;20063;-66
2022/03/09 09:35:58;;;;;;;10.75;6.53;;;5.70;81.30;;;;;;5086090;28;20036;-65
2022/03/09 09:38:24;;;;;;;9.88;6.68;;;5.80;80.20;;;;;;5087398;28;20052;-67
2022/03/09 09:40:53;;;;;;;10.50;6.55;;;5.90;78.40;;;;;;5086105;28;20580;-66
2022/03/09 09:43:19;;;;;;;10.45;6.20;;;6.00;77.10;;;;;;5086761;28;20052;-66
2022/03/09 09:45:44;;;;;;;11.07;7.10;;;6.10;77.50;;;;;;5086751;28;20427;-67
2022/03/09 09:48:12;;;;;;;11.68;7.03;;;6.20;77.60;;;;;;5087200;28;20048;-66
2022/03/09 09:50:40;;;;;;;10.77;6.45;;;6.20;77.00;;;;;;5089295;28;20055;-66
2022/03/09 09:53:10;;;;;;;10.90;6.72;;;6.30;76.50;;;;;;5089895;28;20056;-67
2022/03/09 09:55:36;;;;;;;10.10;6.30;;;6.40;75.60;;;;;;5090329;28;20047;-66
2022/03/09 09:58:02;;;;;;;11.73;6.80;;;6.40;75.20;;;;;;5090351;28;20382;-65
2022/03/09 10:00:27;;;;;;;11.88;7.22;;;6.50;74.40;;;;;;5091215;28;20096;-65
2022/03/09 10:02:53;;;;;;;11.48;6.80;;;6.60;74.20;;;;;;5089779;28;20118;-65
2022/03/09 10:05:19;;;;;;;13.00;6.65;;;6.60;74.20;;;;;;5089203;28;20097;-65
2022/03/09 10:08:08;;;;;;;10.38;6.65;;;6.70;74.00;;;;;;5090372;28;20075;-65
2022/03/09 10:10:43;;;;;;;10.80;6.97;;;6.80;73.40;;;;;;5089735;28;20454;-66
2022/03/09 10:13:17;;;;;;;10.50;6.60;;;6.90;74.70;;;;;;5089829;28;20593;-66
2022/03/09 10:15:48;;;;;;;12.10;7.07;;;7.00;73.70;;;;;;5088983;28;20044;-66
2022/03/09 10:18:16;;;;;;;11.60;7.43;;;7.10;73.20;;;;;;5090216;28;20569;-65
2022/03/09 10:20:42;;;;;;;11.45;6.80;;;7.20;72.80;;;;;;5087402;28;20047;-65
2022/03/09 10:23:09;;;;;;;12.23;7.30;;;7.20;71.50;;;;;;5089967;28;20051;-65
2022/03/09 10:25:34;;;;;;;12.32;6.78;;;7.30;71.50;;;;;;5072094;28;20056;-65
2022/03/09 10:28:06;;;;;;;11.90;6.65;;;7.30;70.90;;;;;;5075684;28;20075;-65
2022/03/09 10:30:34;;;;;;;11.60;6.85;;;7.40;70.60;;;;;;5090842;28;20040;-64
2022/03/09 10:33:02;;;;;;;11.90;6.95;;;7.50;70.60;;;;;;5087308;28;20066;-66
2022/03/09 10:35:30;;;;;;;13.02;6.90;;;7.50;69.90;;;;;;5073372;28;20044;-65
2022/03/09 10:38:01;;;;;;;11.18;6.88;;;7.60;69.00;;;;;;5087719;28;20189;-65
2022/03/09 10:40:29;;;;;;;11.63;6.80;;;7.60;68.40;;;;;;5088652;28;20399;-65
2022/03/09 10:43:13;;;;;;;11.57;7.00;;;7.60;68.70;;;;;;5089782;28;20052;-65
2022/03/09 10:46:04;;;;;;;10.45;6.90;;;7.70;68.00;;;;;;5089664;28;20048;-65
2022/03/09 10:48:49;;;;;;;10.40;6.90;;;7.80;68.70;;;;;;5089679;28;20563;-65
2022/03/09 10:51:47;;;;;;;11.60;7.03;;;7.90;67.50;;;;;;5088426;28;20093;-65
2022/03/09 10:54:32;;;;;;;11.88;7.20;;;7.90;66.70;;;;;;5059124;28;20091;-65
2022/03/09 10:57:08;;;;;;;10.45;6.90;;;8.00;66.70;;;;;;5089161;28;20059;-65
2022/03/09 11:00:06;;;;;;;12.07;6.97;;;8.10;66.90;;;;;;5089237;28;20102;-64
2022/03/09 11:02:39;;;;;;;10.52;7.18;;;8.20;67.30;;;;;;5044556;28;20068;-66
2022/03/09 11:05:17;;;;;;;10.80;7.10;;;8.20;67.90;;;;;;5089194;28;20051;-64
2022/03/09 11:07:43;;;;;;;10.60;6.97;;;8.30;67.20;;;;;;5121356;27;20158;-64
2022/03/09 11:10:12;;;;;;;13.05;7.38;;;8.30;67.00;;;;;;5089269;28;20043;-65
2022/03/09 11:12:38;;;;;;;10.98;7.15;;;8.40;67.50;;;;;;5088734;28;20051;-64
2022/03/09 11:15:04;;;;;;;13.10;7.53;;;8.50;67.10;;;;;;5089145;28;20044;-67
2022/03/09 11:17:30;;;;;;;13.27;8.25;;;8.60;66.70;;;;;;5089372;28;20047;-65
2022/03/09 11:19:57;;;;;;;11.75;6.90;;;8.60;66.10;;;;;;5088583;28;20044;-65
2022/03/09 11:22:23;;;;;;;12.43;7.40;;;8.70;66.40;;;;;;5084675;28;20080;-65
2022/03/09 11:24:48;;;;;;;14.50;7.75;;;8.70;65.70;;;;;;5088291;28;20086;-66
2022/03/09 11:27:16;;;;;;;14.60;8.10;;;8.70;66.00;;;;;;5089628;28;20147;-67
2022/03/09 11:29:42;;;;;;;15.07;7.53;;;8.80;65.20;;;;;;5088031;28;20139;-65
2022/03/09 11:32:10;;;;;;;13.60;7.78;;;8.80;64.00;;;;;;5089346;28;20519;-65
2022/03/09 11:34:42;;;;;;;11.95;7.82;;;8.80;63.90;;;;;;5086982;28;20047;-67
2022/03/09 11:37:17;;;;;;;12.70;7.45;;;8.90;63.10;;;;;;5088904;28;20048;-65
2022/03/09 11:40:06;;;;;;;13.27;7.53;;;8.90;62.00;;;;;;5087946;28;20075;-65
2022/03/09 11:42:34;;;;;;;10.95;7.40;;;8.90;62.40;;;;;;5087661;28;20541;-64
2022/03/09 11:45:20;;;;;;;11.68;7.13;;;9.00;62.40;;;;;;5088596;28;20040;-68
2022/03/09 11:48:04;;;;;;;11.50;7.60;;;9.10;60.80;;;;;;5089079;28;20058;-64
2022/03/09 11:50:34;;;;;;;12.93;8.25;;;9.10;60.90;;;;;;5085967;28;20391;-64
2022/03/09 11:53:08;;;;;;;10.88;7.70;;;9.20;60.50;;;;;;5088424;28;20059;-65
2022/03/09 11:55:35;;;;;;;13.27;8.15;;;9.20;60.30;;;;;;5088120;28;20036;-64
2022/03/09 11:58:07;;;;;;;12.43;8.05;;;9.30;60.00;;;;;;5087844;28;20063;-64
2022/03/09 12:00:34;;;;;;;13.10;7.93;;;9.40;60.40;;;;;;5088987;28;20048;-64
2022/03/09 12:03:00;;;;;;;14.68;8.07;;;9.40;60.60;;;;;;5087759;28;20374;-64
2022/03/09 12:05:29;;;;;;;11.95;8.15;;;9.50;60.60;;;;;;5087750;28;20043;-64
2022/03/09 12:07:56;;;;;;;13.73;8.20;;;9.50;60.20;;;;;;5086849;28;20051;-64
2022/03/09 12:10:43;;;;;;;12.68;7.65;;;9.60;59.80;;;;;;5086182;28;20135;-66
2022/03/09 12:13:22;;;;;;;13.00;8.20;;;9.70;58.80;;;;;;5088687;28;20464;-64
2022/03/09 12:16:18;;;;;;;14.50;8.35;;;9.60;59.70;;;;;;5088451;28;20056;-64
2022/03/09 12:18:56;;;;;;;12.68;7.82;;;9.70;59.10;;;;;;5087049;28;20130;-64
2022/03/09 12:21:32;;;;;;;11.15;7.57;;;9.70;58.90;;;;;;5079272;28;20132;-65
2022/03/09 12:24:04;;;;;;;11.98;7.95;;;9.80;59.20;;;;;;5087488;28;20050;-65
2022/03/09 12:26:41;;;;;;;11.70;7.82;;;9.90;59.60;;;;;;5087492;28;20418;-66
2022/03/09 12:29:21;;;;;;;11.65;8.25;;;9.90;59.30;;;;;;5088941;28;20051;-66
2022/03/09 12:31:59;;;;;;;12.60;7.65;;;10.00;58.90;;;;;;5085154;28;20611;-65
2022/03/09 12:34:27;;;;;;;14.27;7.85;;;10.00;58.70;;;;;;5086290;28;20377;-65
2022/03/09 12:36:53;;;;;;;11.88;7.43;;;10.10;58.50;;;;;;5086817;28;20040;-65
2022/03/09 12:39:19;;;;;;;13.02;8.13;;;10.10;58.00;;;;;;5086397;28;20157;-66
2022/03/09 12:41:51;;;;;;;12.48;7.82;;;10.20;57.30;;;;;;5087522;28;20085;-66
2022/03/09 12:44:19;;;;;;;12.30;7.75;;;10.20;57.30;;;;;;5087241;28;20172;-66
2022/03/09 12:46:49;;;;;;;11.60;7.60;;;10.20;56.50;;;;;;5087328;28;20047;-66
2022/03/09 12:49:20;;;;;;;11.75;7.80;;;10.20;56.30;;;;;;5069372;28;20438;-66